Time;durP1;ratioP1;P1;durP2;ratioP2;P2;SDS_P1;SDS_P2;PMS_P1;PMS_P2;Temp;Humidity;BMP_temperature;BMP_pressure;BME280_temperature;BME280_humidity;BME280_pressure;Samples;Min_cycle;Max_cycle;Signal;HPM_P1;HPM_P2
2022/03/21 00:00:38;;;;;;;13.20;8.50;;;;;;;;;;5074611;28;20386;-68
2022/03/21 00:03:04;;;;;;;11.87;9.50;;;;;;;;;;5074601;28;20421;-68
2022/03/21 00:05:30;;;;;;;11.30;7.87;;;;;;;;;;5074443;28;20390;-67
2022/03/21 00:07:56;;;;;;;10.33;8.60;;;;;;;;;;5073777;28;20895;-67
2022/03/21 00:10:23;;;;;;;12.00;8.20;;;;;;;;;;5074399;28;20398;-67
2022/03/21 00:12:51;;;;;;;11.50;8.50;;;;;;;;;;5074571;28;20529;-72
2022/03/21 00:15:17;;;;;;;20.10;8.87;;;;;;;;;;5074644;28;20390;-72
2022/03/21 00:17:52;;;;;;;20.03;8.50;;;;;;;;;;5074542;28;20440;-70
2022/03/21 00:20:19;;;;;;;14.67;8.83;;;;;;;;;;5074084;28;20392;-71
2022/03/21 00:22:45;;;;;;;14.83;8.80;;;;;;;;;;5074424;28;20415;-71
2022/03/21 00:25:11;;;;;;;12.23;8.67;;;;;;;;;;5072897;28;20891;-71
2022/03/21 00:27:38;;;;;;;9.93;8.50;;;;;;;;;;5072753;28;20476;-71
2022/03/21 00:30:05;;;;;;;11.63;8.73;;;;;;;;;;5074042;28;20410;-71
2022/03/21 00:32:31;;;;;;;13.13;8.67;;;;;;;;;;5072600;28;20484;-71
2022/03/21 00:34:57;;;;;;;11.53;8.30;;;;;;;;;;5073873;28;20417;-72
2022/03/21 00:37:23;;;;;;;9.30;8.40;;;;;;;;;;5073916;28;20421;-71
2022/03/21 00:39:50;;;;;;;10.13;8.30;;;;;;;;;;5072416;28;20458;-71
2022/03/21 00:42:16;;;;;;;9.87;8.10;;;;;;;;;;5073707;28;20532;-72
2022/03/21 00:44:42;;;;;;;12.43;8.47;;;;;;;;;;5073739;28;20463;-71
2022/03/21 00:47:08;;;;;;;9.73;7.80;;;;;;;;;;5073731;28;20402;-72
2022/03/21 00:49:34;;;;;;;10.00;8.50;;;;;;;;;;5073638;28;20384;-71
2022/03/21 00:52:00;;;;;;;9.27;8.00;;;;;;;;;;5073649;28;20427;-71
2022/03/21 00:54:26;;;;;;;15.50;10.13;;;;;;;;;;5073574;28;20408;-71
2022/03/21 00:56:52;;;;;;;13.90;9.27;;;;;;;;;;5073639;28;20373;-71
2022/03/21 00:59:18;;;;;;;9.33;8.33;;;;;;;;;;5073570;28;20806;-72
2022/03/21 01:01:44;;;;;;;9.73;8.73;;;;;;;;;;5073607;28;20460;-72
2022/03/21 01:04:10;;;;;;;12.80;10.17;;;;;;;;;;5073456;28;20422;-69
2022/03/21 01:06:35;;;;;;;14.43;9.57;;;;;;;;;;5073466;28;20486;-71
2022/03/21 01:09:02;;;;;;;12.03;8.83;;;;;;;;;;5073569;28;20389;-71
2022/03/21 01:11:28;;;;;;;12.47;8.53;;;;;;;;;;5073371;28;20448;-71
2022/03/21 01:13:54;;;;;;;13.43;8.90;;;;;;;;;;5073398;28;20407;-71
2022/03/21 01:16:20;;;;;;;14.63;8.30;;;;;;;;;;5073420;28;20398;-72
2022/03/21 01:18:46;;;;;;;7.80;7.10;;;;;;;;;;5073227;28;20429;-71
2022/03/21 01:21:12;;;;;;;14.93;9.40;;;;;;;;;;5073393;28;20954;-71
2022/03/21 01:23:39;;;;;;;9.97;8.97;;;;;;;;;;5073284;28;20385;-72
2022/03/21 01:26:05;;;;;;;12.17;9.00;;;;;;;;;;5073342;28;20410;-69
2022/03/21 01:28:31;;;;;;;9.17;8.27;;;;;;;;;;5073258;28;20406;-70
2022/03/21 01:30:57;;;;;;;13.47;9.47;;;;;;;;;;5073287;28;20381;-66
2022/03/21 01:33:23;;;;;;;11.63;8.30;;;;;;;;;;5073036;28;20473;-69
2022/03/21 01:35:49;;;;;;;13.70;9.40;;;;;;;;;;5073221;28;20373;-68
2022/03/21 01:38:15;;;;;;;18.50;8.87;;;;;;;;;;5073008;28;20466;-70
2022/03/21 01:40:41;;;;;;;16.73;8.70;;;;;;;;;;5073234;28;20370;-68
2022/03/21 01:43:13;;;;;;;10.23;8.60;;;;;;;;;;5071851;28;20520;-71
2022/03/21 01:45:39;;;;;;;11.43;8.90;;;;;;;;;;5073059;28;20402;-71
2022/03/21 01:48:07;;;;;;;9.63;8.30;;;;;;;;;;5073146;28;20523;-69
2022/03/21 01:50:33;;;;;;;9.50;7.93;;;;;;;;;;5073083;28;20436;-71
2022/03/21 01:55:44;;;;;;;13.40;8.97;;;;;;;;;;5073132;28;20397;-68
2022/03/21 01:58:13;;;;;;;11.33;8.97;;;;;;;;;;5073053;28;20385;-70
2022/03/21 02:00:39;;;;;;;22.37;9.00;;;;;;;;;;5073052;28;20365;-71
2022/03/21 02:03:05;;;;;;;12.70;9.03;;;;;;;;;;5071741;28;20422;-71
2022/03/21 02:05:32;;;;;;;13.43;9.87;;;;;;;;;;5072841;28;20888;-68
2022/03/21 02:07:58;;;;;;;11.53;8.87;;;;;;;;;;5072975;28;20413;-70
2022/03/21 02:10:24;;;;;;;17.33;9.33;;;;;;;;;;5072824;28;20406;-71
2022/03/21 02:12:50;;;;;;;12.50;10.50;;;;;;;;;;5073047;28;20497;-71
2022/03/21 02:15:16;;;;;;;9.53;8.60;;;;;;;;;;5072783;28;20856;-69
2022/03/21 02:17:43;;;;;;;15.40;9.90;;;;;;;;;;5073019;28;20377;-70
2022/03/21 02:20:10;;;;;;;10.87;8.97;;;;;;;;;;5072768;28;20428;-71
2022/03/21 02:22:42;;;;;;;19.90;9.03;;;;;;;;;;5072696;28;20830;-67
2022/03/21 02:25:29;;;;;;;16.70;9.53;;;;;;;;;;5072728;28;20383;-71
2022/03/21 02:27:56;;;;;;;11.53;9.40;;;;;;;;;;5072761;28;20505;-70
2022/03/21 02:30:22;;;;;;;13.33;9.10;;;;;;;;;;5074186;28;20372;-70
2022/03/21 02:32:49;;;;;;;11.17;9.73;;;;;;;;;;5076188;28;20465;-70
2022/03/21 02:35:16;;;;;;;15.20;9.70;;;;;;;;;;5076224;28;20433;-71
2022/03/21 02:37:43;;;;;;;12.07;9.20;;;;;;;;;;5076079;28;20377;-71
2022/03/21 02:40:10;;;;;;;15.77;10.40;;;;;;;;;;5076152;28;20472;-71
2022/03/21 02:42:36;;;;;;;13.80;9.67;;;;;;;;;;5076084;28;20406;-70
2022/03/21 02:45:02;;;;;;;17.60;10.50;;;;;;;;;;5074741;28;20388;-71
2022/03/21 02:47:28;;;;;;;17.80;9.40;;;;;;;;;;5075959;28;20771;-71
2022/03/21 02:49:55;;;;;;;12.87;9.83;;;;;;;;;;5075917;28;20381;-71
2022/03/21 02:52:22;;;;;;;13.40;9.47;;;;;;;;;;5074604;28;20470;-71
2022/03/21 02:54:48;;;;;;;13.27;9.93;;;;;;;;;;5075942;28;20500;-67
2022/03/21 02:57:14;;;;;;;11.63;10.43;;;;;;;;;;5075904;28;20450;-71
2022/03/21 02:59:40;;;;;;;11.10;8.57;;;;;;;;;;5076073;28;20399;-71
2022/03/21 03:02:07;;;;;;;14.40;10.03;;;;;;;;;;5075797;28;21072;-70
2022/03/21 03:04:33;;;;;;;15.70;10.53;;;;;;;;;;5075699;28;20418;-71
2022/03/21 03:06:59;;;;;;;16.30;10.07;;;;;;;;;;5075719;28;20887;-68
2022/03/21 03:09:25;;;;;;;13.50;10.60;;;;;;;;;;5075622;28;20414;-67
2022/03/21 03:11:51;;;;;;;16.90;9.80;;;;;;;;;;5075477;28;20817;-67
2022/03/21 03:14:17;;;;;;;11.07;9.90;;;;;;;;;;5075581;28;20402;-68
2022/03/21 03:16:43;;;;;;;13.17;10.00;;;;;;;;;;5075445;28;20438;-69
2022/03/21 03:19:09;;;;;;;10.97;9.87;;;;;;;;;;5075469;28;20393;-67
2022/03/21 03:21:40;;;;;;;15.80;10.93;;;;;;;;;;5075430;28;20406;-69
2022/03/21 03:24:09;;;;;;;16.60;11.00;;;;;;;;;;5075362;28;20780;-70
2022/03/21 03:26:34;;;;;;;20.70;10.60;;;;;;;;;;5075309;28;20482;-67
2022/03/21 03:29:00;;;;;;;18.03;11.13;;;;;;;;;;5075244;28;20406;-67
2022/03/21 03:31:27;;;;;;;13.60;11.10;;;;;;;;;;5075269;28;20406;-68
2022/03/21 03:33:53;;;;;;;12.90;10.00;;;;;;;;;;5075022;28;20470;-68
2022/03/21 03:36:19;;;;;;;13.57;10.83;;;;;;;;;;5075112;28;20398;-68
2022/03/21 03:38:46;;;;;;;11.60;10.40;;;;;;;;;;5074797;28;20462;-68
2022/03/21 03:41:12;;;;;;;14.13;11.23;;;;;;;;;;5074148;28;20493;-68
2022/03/21 03:43:38;;;;;;;21.90;12.70;;;;;;;;;;5074683;28;20462;-68
2022/03/21 03:46:05;;;;;;;20.33;14.80;;;;;;;;;;5075124;28;20425;-71
2022/03/21 03:48:31;;;;;;;24.63;13.90;;;;;;;;;;5074810;28;20479;-68
2022/03/21 03:50:57;;;;;;;15.57;12.00;;;;;;;;;;5074854;28;20381;-68
2022/03/21 03:53:23;;;;;;;15.53;12.93;;;;;;;;;;5074902;28;20215;-69
2022/03/21 03:55:49;;;;;;;15.27;11.20;;;;;;;;;;5074785;28;20398;-71
2022/03/21 03:58:16;;;;;;;21.50;11.73;;;;;;;;;;5074631;28;20958;-70
2022/03/21 04:00:44;;;;;;;15.70;10.70;;;;;;;;;;5074624;28;20421;-71
2022/03/21 04:05:55;;;;;;;18.42;11.55;;;;;;;;;;5074539;28;20550;-69
2022/03/21 04:08:21;;;;;;;17.47;11.37;;;;;;;;;;5074486;28;20172;-71
2022/03/21 04:10:47;;;;;;;17.23;12.05;;;;;;;;;;5074466;28;20365;-70
2022/03/21 04:13:13;;;;;;;15.13;11.40;;;;;;;;;;5074179;28;20572;-71
2022/03/21 04:15:39;;;;;;;15.37;11.80;;;;;;;;;;5074363;28;20390;-68
2022/03/21 04:18:05;;;;;;;12.20;10.90;;;;;;;;;;5074154;28;20904;-68
2022/03/21 04:20:32;;;;;;;12.98;10.90;;;;;;;;;;5074116;28;20414;-71
2022/03/21 04:22:58;;;;;;;15.10;11.25;;;;;;;;;;5074179;28;20164;-70
2022/03/21 04:25:25;;;;;;;14.25;11.68;;;;;;;;;;5074134;28;20230;-68
2022/03/21 04:27:53;;;;;;;19.15;11.45;;;;;;;;;;5074172;28;20583;-67
2022/03/21 04:30:19;;;;;;;15.00;11.27;;;;;;;;;;5074066;28;20163;-67
2022/03/21 04:32:45;;;;;;;17.05;11.50;;;;;;;;;;5073839;28;20242;-67
2022/03/21 04:35:11;;;;;;;14.63;11.37;;;;;;;;;;5073963;28;20203;-68
2022/03/21 04:37:41;;;;;;;15.60;12.05;;;;;;;;;;5073802;28;20428;-66
2022/03/21 04:40:08;;;;;;;18.00;11.05;;;;;;;;;;5072411;28;20262;-68
2022/03/21 04:42:38;;;;;;;22.13;12.50;;;;;;;;;;5073827;28;20175;-68
2022/03/21 04:45:05;;;;;;;14.23;11.55;;;;;;;;;;5073729;28;20160;-67
2022/03/21 04:47:34;;;;;;;18.35;11.95;;;;;;;;;;5073770;28;20172;-72
2022/03/21 04:50:00;;;;;;;17.87;11.97;;;;;;;;;;5073819;28;20167;-71
2022/03/21 04:52:28;;;;;;;15.88;11.98;;;;;;;;;;5073387;28;20464;-72
2022/03/21 04:54:57;;;;;;;16.67;11.53;;;;;;;;;;5073760;28;20164;-70
2022/03/21 04:57:23;;;;;;;15.27;11.73;;;;;;;;;;5073755;28;20381;-72
2022/03/21 04:59:50;;;;;;;15.87;11.80;;;;;;;;;;5073705;28;20164;-72
2022/03/21 05:02:16;;;;;;;13.70;11.48;;;;;;;;;;5073648;28;20410;-71
2022/03/21 05:04:42;;;;;;;14.33;11.40;;;;;;;;;;5073549;28;20573;-71
2022/03/21 05:07:12;;;;;;;12.43;10.50;;;;;;;;;;5073560;28;20472;-72
2022/03/21 05:09:40;;;;;;;13.83;11.93;;;;;;;;;;5073534;28;20415;-71
2022/03/21 05:12:08;;;;;;;15.85;12.52;;;;;;;;;;5073641;28;20461;-71
2022/03/21 05:14:34;;;;;;;14.05;10.90;;;;;;;;;;5073435;28;20246;-71
2022/03/21 05:17:02;;;;;;;13.90;11.43;;;;;;;;;;5073438;28;20155;-71
2022/03/21 05:19:34;;;;;;;24.10;12.40;;;;;;;;;;5073330;28;20513;-70
2022/03/21 05:22:01;;;;;;;21.23;12.90;;;;;;;;;;5073446;28;20373;-71
2022/03/21 05:32:40;;;;;;;18.63;12.93;;;;;;;;;;5073141;28;20272;-70
2022/03/21 05:37:51;;;;;;;24.13;13.77;;;;;;;;;;5073020;28;20464;-71
2022/03/21 05:40:34;;;;;;;23.10;13.77;;;;;;;;;;5071902;28;20199;-71
2022/03/21 05:43:00;;;;;;;19.33;13.30;;;;;;;;;;5073180;28;20816;-71
2022/03/21 05:45:26;;;;;;;17.40;12.53;;;;;;;;;;5073164;28;20415;-72
2022/03/21 05:50:40;;;;;;;18.25;12.75;;;;;;;;;;5073295;28;20491;-70
2022/03/21 05:53:08;;;;;;;21.85;15.90;;;;;;;;;;5072988;28;20207;-71
2022/03/21 05:55:34;;;;;;;21.03;14.73;;;;;;;;;;5073109;28;20229;-72
2022/03/21 05:58:00;;;;;;;20.23;14.80;;;;;;;;;;5073010;28;20369;-72
2022/03/21 06:00:27;;;;;;;28.10;14.70;;;;;;;;;;5072971;28;20584;-69
2022/03/21 06:02:56;;;;;;;31.67;18.40;;;;;;;;;;5072862;28;20164;-70
2022/03/21 06:05:23;;;;;;;28.23;16.63;;;;;;;;;;5074407;28;20380;-70
2022/03/21 06:07:49;;;;;;;26.60;17.27;;;;;;;;;;5075381;28;20418;-70
2022/03/21 06:10:15;;;;;;;25.33;17.80;;;;;;;;;;5076736;28;20745;-70
2022/03/21 06:12:41;;;;;;;23.73;15.50;;;;;;;;;;5076491;28;20465;-69
2022/03/21 06:15:08;;;;;;;54.43;32.57;;;;;;;;;;5076494;28;20428;-72
2022/03/21 06:17:38;;;;;;;49.87;29.90;;;;;;;;;;5076486;28;20900;-70
2022/03/21 06:20:06;;;;;;;42.90;28.60;;;;;;;;;;5076657;28;20412;-70
2022/03/21 06:22:38;;;;;;;41.67;18.70;;;;;;;;;;5076459;28;20369;-70
2022/03/21 06:25:04;;;;;;;28.90;15.97;;;;;;;;;;5076395;28;20432;-71
2022/03/21 06:27:30;;;;;;;26.03;20.90;;;;;;;;;;5076384;28;20430;-70
2022/03/21 06:29:56;;;;;;;32.13;18.80;;;;;;;;;;5076294;28;20402;-68
2022/03/21 06:32:23;;;;;;;32.47;17.90;;;;;;;;;;5076115;28;20990;-67
2022/03/21 06:34:49;;;;;;;35.17;19.00;;;;;;;;;;5074919;28;20393;-71
2022/03/21 06:37:15;;;;;;;26.33;19.10;;;;;;;;;;5076028;28;20524;-68
2022/03/21 06:39:41;;;;;;;26.60;18.20;;;;;;;;;;5075827;28;20440;-66
2022/03/21 06:42:08;;;;;;;22.03;17.50;;;;;;;;;;5075934;28;20475;-66
2022/03/21 06:44:34;;;;;;;25.30;18.00;;;;;;;;;;5076240;28;20417;-70
2022/03/21 06:47:01;;;;;;;27.23;19.00;;;;;;;;;;5074584;28;20426;-71
2022/03/21 06:49:29;;;;;;;29.33;17.77;;;;;;;;;;5075844;28;20858;-70
2022/03/21 06:51:56;;;;;;;25.73;17.70;;;;;;;;;;5075741;28;20623;-71
2022/03/21 06:54:22;;;;;;;23.80;17.13;;;;;;;;;;5076037;28;20480;-70
2022/03/21 06:56:48;;;;;;;27.83;17.83;;;;;;;;;;5075698;28;20866;-68
2022/03/21 06:59:14;;;;;;;25.73;16.00;;;;;;;;;;5075673;28;20407;-67
2022/03/21 07:01:40;;;;;;;21.27;15.10;;;;;;;;;;5075409;28;20900;-69
2022/03/21 07:04:09;;;;;;;19.83;14.93;;;;;;;;;;5074237;28;20425;-70
2022/03/21 07:06:35;;;;;;;18.97;15.77;;;;;;;;;;5075571;28;20395;-69
2022/03/21 07:09:01;;;;;;;21.47;15.50;;;;;;;;;;5075450;28;20418;-71
2022/03/21 07:11:29;;;;;;;21.50;16.00;;;;;;;;;;5074058;28;20508;-68
2022/03/21 07:14:01;;;;;;;21.37;15.63;;;;;;;;;;5075155;28;20466;-70
2022/03/21 07:16:27;;;;;;;24.80;14.77;;;;;;;;;;5074989;28;20844;-69
2022/03/21 07:18:53;;;;;;;42.27;28.17;;;;;;;;;;5075174;28;20517;-70
2022/03/21 07:21:19;;;;;;;22.87;16.73;;;;;;;;;;5075158;28;20749;-69
2022/03/21 07:23:45;;;;;;;24.37;14.73;;;;;;;;;;5075036;28;20885;-68
2022/03/21 07:26:12;;;;;;;18.40;13.83;;;;;;;;;;5075031;28;20816;-71
2022/03/21 07:28:38;;;;;;;15.90;14.13;;;;;;;;;;5074948;28;20430;-69
2022/03/21 07:31:05;;;;;;;19.80;14.93;;;;;;;;;;5074700;28;20402;-70
2022/03/21 07:33:31;;;;;;;18.93;14.90;;;;;;;;;;5074721;28;20838;-71
2022/03/21 07:35:57;;;;;;;16.03;13.90;;;;;;;;;;5073597;28;20414;-70
2022/03/21 07:38:24;;;;;;;17.10;14.20;;;;;;;;;;5074695;28;20473;-69
2022/03/21 07:40:50;;;;;;;18.17;14.20;;;;;;;;;;5074789;28;20916;-69
2022/03/21 07:43:17;;;;;;;19.30;15.70;;;;;;;;;;5074796;28;20417;-69
2022/03/21 07:48:27;;;;;;;20.47;16.07;;;;;;;;;;5074767;28;20390;-70
2022/03/21 07:50:57;;;;;;;22.43;16.10;;;;;;;;;;5074656;28;20410;-69
2022/03/21 07:53:24;;;;;;;18.07;15.67;;;;;;;;;;5074631;28;20473;-68
2022/03/21 07:55:50;;;;;;;18.77;16.00;;;;;;;;;;5074584;28;20940;-69
2022/03/21 07:58:16;;;;;;;16.53;14.73;;;;;;;;;;5074568;28;20399;-71
2022/03/21 08:00:42;;;;;;;46.37;32.00;;;;;;;;;;5074587;28;20939;-70
2022/03/21 08:03:12;;;;;;;20.50;16.40;;;;;;;;;;5074331;28;20893;-70
2022/03/21 08:05:38;;;;;;;19.90;15.53;;;;;;;;;;5074600;28;20830;-69
2022/03/21 08:08:04;;;;;;;17.63;15.90;;;;;;;;;;5074156;28;20394;-67
2022/03/21 08:10:30;;;;;;;21.23;16.20;;;;;;;;;;5074180;28;20410;-72
2022/03/21 08:12:57;;;;;;;20.93;14.30;;;;;;;;;;5074327;28;20523;-71
2022/03/21 08:15:23;;;;;;;16.87;13.87;;;;;;;;;;5074131;28;20866;-71
2022/03/21 08:17:49;;;;;;;22.87;13.30;;;;;;;;;;5074037;28;20437;-68
2022/03/21 08:20:16;;;;;;;18.80;14.10;;;;;;;;;;5074081;28;20458;-71
2022/03/21 08:22:43;;;;;;;14.90;13.30;;;;;;;;;;5073933;28;21027;-66
2022/03/21 08:25:10;;;;;;;45.27;34.07;;;;;;;;;;5072758;28;20815;-71
2022/03/21 08:27:36;;;;;;;19.53;17.43;;;;;;;;;;5073442;28;20493;-73
2022/03/21 08:30:02;;;;;;;15.40;12.57;;;;;;;;;;5073936;28;20410;-72
2022/03/21 08:32:28;;;;;;;13.47;11.80;;;;;;;;;;5073801;28;20944;-71
2022/03/21 08:34:54;;;;;;;23.20;11.87;;;;;;;;;;5074063;28;20499;-69
2022/03/21 08:37:25;;;;;;;18.50;11.90;;;;;;;;;;5073738;28;20815;-69
2022/03/21 08:39:51;;;;;;;17.67;12.23;;;;;;;;;;5073639;28;20568;-70
2022/03/21 08:42:17;;;;;;;16.83;11.77;;;;;;;;;;5073700;28;20434;-68
2022/03/21 08:44:43;;;;;;;18.07;12.73;;;;;;;;;;5073672;28;20505;-70
2022/03/21 08:47:09;;;;;;;15.43;12.50;;;;;;;;;;5073413;28;20409;-68
2022/03/21 08:49:37;;;;;;;16.93;12.83;;;;;;;;;;5073347;28;20440;-67
2022/03/21 08:52:06;;;;;;;14.13;11.63;;;;;;;;;;5073458;28;20827;-67
2022/03/21 08:54:35;;;;;;;17.90;12.43;;;;;;;;;;5073558;28;20502;-67
2022/03/21 08:57:04;;;;;;;23.53;11.67;;;;;;;;;;5073346;28;20421;-67
2022/03/21 08:59:30;;;;;;;14.23;12.70;;;;;;;;;;5073452;28;20481;-67
2022/03/21 09:01:56;;;;;;;13.63;12.17;;;;;;;;;;5073508;28;20434;-68
2022/03/21 09:04:22;;;;;;;14.83;12.50;;;;;;;;;;5073416;28;21018;-68
2022/03/21 09:06:49;;;;;;;19.87;11.53;;;;;;;;;;5073309;28;20442;-67
2022/03/21 09:09:15;;;;;;;18.77;12.70;;;;;;;;;;5073372;28;20487;-70
2022/03/21 09:11:41;;;;;;;17.93;13.00;;;;;;;;;;5073388;28;20399;-71
2022/03/21 09:14:08;;;;;;;20.73;12.80;;;;;;;;;;5073222;28;20469;-69
2022/03/21 09:16:34;;;;;;;18.60;13.53;;;;;;;;;;5073310;28;20766;-69
2022/03/21 09:19:00;;;;;;;24.17;18.17;;;;;;;;;;5073166;28;20426;-70
2022/03/21 09:21:27;;;;;;;15.63;12.07;;;;;;;;;;5071918;28;20517;-70
2022/03/21 09:23:53;;;;;;;12.70;11.27;;;;;;;;;;5073250;28;20445;-71
2022/03/21 09:26:22;;;;;;;15.83;13.03;;;;;;;;;;5073192;28;20418;-71
2022/03/21 09:28:48;;;;;;;18.50;12.77;;;;;;;;;;5073231;28;20430;-69
2022/03/21 09:31:15;;;;;;;14.13;12.57;;;;;;;;;;5073136;28;20412;-69
2022/03/21 09:33:41;;;;;;;14.80;12.53;;;;;;;;;;5072972;28;20527;-71
2022/03/21 09:36:08;;;;;;;15.13;12.47;;;;;;;;;;5073085;28;20407;-70
2022/03/21 09:38:36;;;;;;;22.17;12.70;;;;;;;;;;5072724;28;20854;-69
2022/03/21 09:41:03;;;;;;;13.13;10.40;;;;;;;;;;5075858;28;20765;-70
2022/03/21 09:43:29;;;;;;;12.03;10.93;;;;;;;;;;5077183;28;20415;-69
2022/03/21 09:45:59;;;;;;;13.70;11.80;;;;;;;;;;5077058;28;20502;-70
2022/03/21 09:48:27;;;;;;;11.47;10.37;;;;;;;;;;5077025;28;20915;-70
2022/03/21 09:50:56;;;;;;;19.93;12.00;;;;;;;;;;5077078;28;20412;-69
2022/03/21 09:53:22;;;;;;;12.87;11.30;;;;;;;;;;5077019;28;20467;-68
2022/03/21 09:55:48;;;;;;;12.40;11.10;;;;;;;;;;5076833;28;20412;-68
2022/03/21 09:58:14;;;;;;;18.30;10.83;;;;;;;;;;5076755;28;20408;-67
2022/03/21 10:00:41;;;;;;;20.60;11.93;;;;;;;;;;5076886;28;20405;-69
2022/03/21 10:03:07;;;;;;;12.10;11.03;;;;;;;;;;5077005;28;20892;-68
2022/03/21 10:05:52;;;;;;;13.30;11.90;;;;;;;;;;5075647;28;20525;-70
2022/03/21 10:08:18;;;;;;;15.60;11.50;;;;;;;;;;5076674;28;20408;-70
2022/03/21 10:11:03;;;;;;;16.73;12.50;;;;;;;;;;5076734;28;20406;-70
2022/03/21 10:13:30;;;;;;;17.00;12.93;;;;;;;;;;5076496;28;20528;-71
2022/03/21 10:16:06;;;;;;;13.60;11.90;;;;;;;;;;5076496;28;20409;-70
2022/03/21 10:18:32;;;;;;;14.43;12.93;;;;;;;;;;5076507;28;20402;-69
2022/03/21 10:21:10;;;;;;;21.77;13.80;;;;;;;;;;5076492;28;20494;-70
2022/03/21 10:23:36;;;;;;;15.23;12.70;;;;;;;;;;5075236;28;20955;-69
2022/03/21 10:26:22;;;;;;;18.90;13.00;;;;;;;;;;5076529;28;20407;-70
2022/03/21 10:28:49;;;;;;;17.77;12.87;;;;;;;;;;5076318;28;20411;-68
2022/03/21 10:31:32;;;;;;;17.17;13.47;;;;;;;;;;5076418;28;20410;-69
2022/03/21 10:34:02;;;;;;;13.37;11.67;;;;;;;;;;5075337;28;20479;-70
2022/03/21 10:36:27;;;;;;;18.90;12.57;;;;;;;;;;5076243;28;20408;-70
2022/03/21 10:39:06;;;;;;;19.50;13.40;;;;;;;;;;5076060;28;20843;-71
2022/03/21 10:41:36;;;;;;;16.73;13.20;;;;;;;;;;5074902;28;20469;-68
2022/03/21 10:44:03;;;;;;;15.63;11.70;;;;;;;;;;5074814;28;20781;-70
2022/03/21 10:46:29;;;;;;;18.10;11.37;;;;;;;;;;5076002;28;20422;-68
2022/03/21 10:49:03;;;;;;;10.63;9.30;;;;;;;;;;5075983;28;20912;-70
2022/03/21 10:51:46;;;;;;;12.30;11.10;;;;;;;;;;5075267;28;20417;-70
2022/03/21 10:54:32;;;;;;;12.57;10.30;;;;;;;;;;5075735;28;20469;-70
2022/03/21 10:56:58;;;;;;;19.97;10.83;;;;;;;;;;5075740;28;20421;-71
2022/03/21 10:59:24;;;;;;;12.97;10.00;;;;;;;;;;5075833;28;20460;-69
2022/03/21 11:01:50;;;;;;;13.70;9.90;;;;;;;;;;5075881;28;20429;-70
2022/03/21 11:04:16;;;;;;;11.73;9.43;;;;;;;;;;5074310;28;20517;-70
2022/03/21 11:06:43;;;;;;;11.30;10.17;;;;;;;;;;5074386;28;20448;-70
2022/03/21 11:09:10;;;;;;;10.57;9.57;;;;;;;;;;5075630;28;20453;-70
2022/03/21 11:11:36;;;;;;;16.57;10.23;;;;;;;;;;5075697;28;20403;-69
2022/03/21 11:14:02;;;;;;;11.67;10.37;;;;;;;;;;5075395;28;20478;-68
2022/03/21 11:16:28;;;;;;;12.83;10.33;;;;;;;;;;5075440;28;20497;-70
2022/03/21 11:18:59;;;;;;;14.40;10.67;;;;;;;;;;5075500;28;20417;-70
2022/03/21 11:21:26;;;;;;;11.63;10.53;;;;;;;;;;5075507;28;20426;-70
2022/03/21 11:23:52;;;;;;;11.30;10.00;;;;;;;;;;5075431;28;20413;-70
2022/03/21 11:26:39;;;;;;;13.60;10.50;;;;;;;;;;5075280;28;20413;-70
2022/03/21 11:29:11;;;;;;;13.40;10.87;;;;;;;;;;5075288;28;20434;-69
2022/03/21 11:31:51;;;;;;;11.90;9.87;;;;;;;;;;5073970;28;20428;-69
2022/03/21 11:34:27;;;;;;;12.40;10.37;;;;;;;;;;5075251;28;20427;-69
2022/03/21 11:36:56;;;;;;;16.93;11.13;;;;;;;;;;5075220;28;20473;-69
2022/03/21 11:39:23;;;;;;;18.33;11.23;;;;;;;;;;5074992;28;20482;-68
2022/03/21 11:42:00;;;;;;;16.20;11.10;;;;;;;;;;5075013;28;20443;-69
2022/03/21 11:44:26;;;;;;;11.63;10.53;;;;;;;;;;5075004;28;20416;-68
2022/03/21 11:46:52;;;;;;;13.73;9.73;;;;;;;;;;5074996;28;20402;-70
2022/03/21 11:49:18;;;;;;;11.50;10.30;;;;;;;;;;5074891;28;20918;-70
2022/03/21 11:51:45;;;;;;;11.47;10.37;;;;;;;;;;5074937;28;20463;-69
2022/03/21 11:54:40;;;;;;;11.87;10.60;;;;;;;;;;5074802;28;21022;-68
2022/03/21 11:57:11;;;;;;;17.53;10.87;;;;;;;;;;5061743;28;20429;-69
2022/03/21 11:59:38;;;;;;;11.03;10.13;;;;;;;;;;5074740;28;20477;-70
2022/03/21 12:02:10;;;;;;;16.93;12.93;;;;;;;;;;5074031;28;20405;-69
2022/03/21 12:04:40;;;;;;;12.40;11.27;;;;;;;;;;5074368;28;20498;-69
2022/03/21 12:07:12;;;;;;;11.37;9.40;;;;;;;;;;5074590;28;20425;-70
2022/03/21 12:09:44;;;;;;;14.40;10.10;;;;;;;;;;5073942;28;20497;-70
2022/03/21 12:12:10;;;;;;;13.73;11.30;;;;;;;;;;5074168;28;20408;-70
2022/03/21 12:14:40;;;;;;;10.73;9.63;;;;;;;;;;5074068;28;20440;-72
2022/03/21 12:17:06;;;;;;;14.40;10.40;;;;;;;;;;5074461;28;20402;-71
2022/03/21 12:20:01;;;;;;;12.40;10.90;;;;;;;;;;5074278;28;20847;-70
2022/03/21 12:22:30;;;;;;;12.03;10.87;;;;;;;;;;5073923;28;20595;-69
2022/03/21 12:24:56;;;;;;;14.20;10.53;;;;;;;;;;5073749;28;20817;-70
2022/03/21 12:27:37;;;;;;;15.03;10.60;;;;;;;;;;5074146;28;20410;-69
2022/03/21 12:30:23;;;;;;;12.07;11.10;;;;;;;;;;5073954;28;20222;-69
2022/03/21 12:32:58;;;;;;;14.87;10.93;;;;;;;;;;5073687;28;20460;-69
2022/03/21 12:35:45;;;;;;;14.53;12.50;;;;;;;;;;5073858;28;20494;-71
2022/03/21 12:38:17;;;;;;;13.43;10.30;;;;;;;;;;5073600;28;20490;-69
2022/03/21 12:40:50;;;;;;;11.27;10.37;;;;;;;;;;5073946;28;20406;-70
2022/03/21 12:43:17;;;;;;;12.90;10.97;;;;;;;;;;5073738;28;20485;-69
2022/03/21 12:45:44;;;;;;;12.27;11.03;;;;;;;;;;5073703;28;20417;-69
2022/03/21 12:48:10;;;;;;;11.60;10.47;;;;;;;;;;5073642;28;20487;-69
2022/03/21 12:50:37;;;;;;;11.33;10.33;;;;;;;;;;5073736;28;20593;-69
2022/03/21 12:53:04;;;;;;;19.50;11.90;;;;;;;;;;5073664;28;20908;-67
2022/03/21 12:55:30;;;;;;;14.47;12.00;;;;;;;;;;5072322;28;20428;-67
2022/03/21 12:57:57;;;;;;;13.73;10.90;;;;;;;;;;5072240;28;20420;-68
2022/03/21 13:00:26;;;;;;;13.07;11.80;;;;;;;;;;5073356;28;20408;-71
2022/03/21 13:02:55;;;;;;;13.37;11.93;;;;;;;;;;5073679;28;20801;-71
2022/03/21 13:10:51;;;;;;;14.37;12.37;;;;;;;;;;5073506;28;20388;-69
2022/03/21 13:13:17;;;;;;;14.77;12.47;;;;;;;;;;5073342;28;20491;-71
2022/03/21 13:15:43;;;;;;;14.20;10.50;;;;;;;;;;5073226;28;20414;-70
2022/03/21 13:18:09;;;;;;;21.20;16.03;;;;;;;;;;5073212;28;20445;-70
2022/03/21 13:20:47;;;;;;;17.07;12.40;;;;;;;;;;5073343;28;20547;-69
2022/03/21 13:23:18;;;;;;;20.47;12.10;;;;;;;;;;5071844;28;20422;-69
2022/03/21 13:25:44;;;;;;;12.80;11.47;;;;;;;;;;5072955;28;20450;-69
2022/03/21 13:28:10;;;;;;;15.60;11.37;;;;;;;;;;5073181;28;20408;-69
2022/03/21 13:30:37;;;;;;;21.43;12.10;;;;;;;;;;5073430;28;20403;-70
2022/03/21 13:33:03;;;;;;;13.77;11.20;;;;;;;;;;5072443;28;20922;-69
2022/03/21 13:35:31;;;;;;;13.27;10.90;;;;;;;;;;5073335;28;20513;-70
2022/03/21 13:38:04;;;;;;;14.30;12.80;;;;;;;;;;5073022;28;20518;-70
2022/03/21 13:40:30;;;;;;;17.50;12.20;;;;;;;;;;5073142;28;20846;-73
2022/03/21 13:43:15;;;;;;;17.47;11.40;;;;;;;;;;5071502;28;20422;-73
2022/03/21 13:45:41;;;;;;;16.00;11.80;;;;;;;;;;5071849;28;20407;-71
2022/03/21 13:48:07;;;;;;;12.97;11.77;;;;;;;;;;5073107;28;20411;-69
2022/03/21 13:50:38;;;;;;;14.83;12.17;;;;;;;;;;5071735;28;20421;-71
2022/03/21 13:53:06;;;;;;;13.33;11.93;;;;;;;;;;5072922;28;20462;-70
2022/03/21 13:55:32;;;;;;;12.27;11.03;;;;;;;;;;5073096;28;20501;-71
2022/03/21 13:58:00;;;;;;;16.00;12.40;;;;;;;;;;5072976;28;20892;-69
2022/03/21 14:00:27;;;;;;;13.80;12.20;;;;;;;;;;5072887;28;20537;-72
2022/03/21 14:02:54;;;;;;;15.13;11.97;;;;;;;;;;5072737;28;20392;-70
2022/03/21 14:05:27;;;;;;;13.60;12.10;;;;;;;;;;5072954;28;20431;-70
2022/03/21 14:08:09;;;;;;;15.03;12.60;;;;;;;;;;5072735;28;20394;-69
2022/03/21 14:10:38;;;;;;;16.63;11.57;;;;;;;;;;5072819;28;20481;-72
2022/03/21 14:13:11;;;;;;;14.83;12.10;;;;;;;;;;5072667;28;20570;-69
2022/03/21 14:15:37;;;;;;;12.53;10.70;;;;;;;;;;5071442;28;20429;-69
2022/03/21 14:18:04;;;;;;;15.90;12.10;;;;;;;;;;5072853;28;20446;-71
2022/03/21 14:20:30;;;;;;;14.70;11.80;;;;;;;;;;5072889;28;20410;-70
2022/03/21 14:22:56;;;;;;;16.80;12.17;;;;;;;;;;5072843;28;20512;-69
2022/03/21 14:28:07;;;;;;;13.40;11.33;;;;;;;;;;5076109;28;20406;-68
2022/03/21 14:30:33;;;;;;;17.13;13.07;;;;;;;;;;5076388;28;20492;-71
2022/03/21 14:32:59;;;;;;;13.03;11.00;;;;;;;;;;5076321;28;20469;-72
2022/03/21 14:35:25;;;;;;;16.93;11.77;;;;;;;;;;5074993;28;20980;-69
2022/03/21 14:37:51;;;;;;;13.10;11.37;;;;;;;;;;5075877;28;20414;-69
2022/03/21 14:40:17;;;;;;;14.03;12.63;;;;;;;;;;5075961;28;20421;-71
2022/03/21 14:42:43;;;;;;;13.53;11.47;;;;;;;;;;5075986;28;20405;-70
2022/03/21 14:45:10;;;;;;;23.10;13.57;;;;;;;;;;5074752;28;20442;-69
2022/03/21 14:47:36;;;;;;;13.60;12.10;;;;;;;;;;5074598;28;20420;-69
2022/03/21 14:50:02;;;;;;;15.83;12.10;;;;;;;;;;5075921;28;20419;-70
2022/03/21 14:52:28;;;;;;;16.67;12.83;;;;;;;;;;5075685;28;20459;-70
2022/03/21 14:54:54;;;;;;;13.40;11.50;;;;;;;;;;5075707;28;20418;-70